sensor_id;sensor_type;location;lat;lon;timestamp;P1;durP1;ratioP1;P2;durP2;ratioP2
47866;SDS011;33628;50.806;11.586;2023-11-21T00:02:11;4.78;;;1.52;;
47866;SDS011;33628;50.806;11.586;2023-11-21T00:04:38;4.25;;;1.05;;
47866;SDS011;33628;50.806;11.586;2023-11-21T00:07:04;5.32;;;0.80;;
47866;SDS011;33628;50.806;11.586;2023-11-21T00:09:34;1.77;;;0.90;;
47866;SDS011;33628;50.806;11.586;2023-11-21T00:12:04;3.55;;;1.05;;
47866;SDS011;33628;50.806;11.586;2023-11-21T00:14:31;4.18;;;1.27;;
47866;SDS011;33628;50.806;11.586;2023-11-21T00:16:58;5.03;;;1.85;;
47866;SDS011;33628;50.806;11.586;2023-11-21T00:19:25;4.07;;;1.33;;
47866;SDS011;33628;50.806;11.586;2023-11-21T00:21:52;5.32;;;2.08;;
47866;SDS011;33628;50.806;11.586;2023-11-21T00:24:18;4.88;;;2.10;;
47866;SDS011;33628;50.806;11.586;2023-11-21T00:26:45;3.65;;;1.73;;
47866;SDS011;33628;50.806;11.586;2023-11-21T00:29:16;5.57;;;1.90;;
47866;SDS011;33628;50.806;11.586;2023-11-21T00:31:44;8.45;;;2.47;;
47866;SDS011;33628;50.806;11.586;2023-11-21T00:34:12;3.45;;;1.55;;
47866;SDS011;33628;50.806;11.586;2023-11-21T00:36:38;4.63;;;1.20;;
47866;SDS011;33628;50.806;11.586;2023-11-21T00:39:05;2.50;;;1.30;;
47866;SDS011;33628;50.806;11.586;2023-11-21T00:41:34;5.22;;;1.30;;
47866;SDS011;33628;50.806;11.586;2023-11-21T00:44:02;1.63;;;0.70;;
47866;SDS011;33628;50.806;11.586;2023-11-21T00:46:30;3.28;;;1.17;;
47866;SDS011;33628;50.806;11.586;2023-11-21T00:48:58;3.78;;;1.02;;
47866;SDS011;33628;50.806;11.586;2023-11-21T00:51:24;1.90;;;0.88;;
47866;SDS011;33628;50.806;11.586;2023-11-21T00:53:51;3.22;;;0.80;;
47866;SDS011;33628;50.806;11.586;2023-11-21T00:56:18;2.63;;;0.70;;
47866;SDS011;33628;50.806;11.586;2023-11-21T00:58:44;1.67;;;1.05;;
47866;SDS011;33628;50.806;11.586;2023-11-21T01:01:15;2.63;;;1.02;;
47866;SDS011;33628;50.806;11.586;2023-11-21T01:03:44;2.72;;;1.20;;
47866;SDS011;33628;50.806;11.586;2023-11-21T01:06:12;2.70;;;1.50;;
47866;SDS011;33628;50.806;11.586;2023-11-21T01:08:39;6.43;;;3.58;;
47866;SDS011;33628;50.806;11.586;2023-11-21T01:11:05;3.20;;;1.80;;
47866;SDS011;33628;50.806;11.586;2023-11-21T01:13:34;4.28;;;2.13;;
47866;SDS011;33628;50.806;11.586;2023-11-21T01:16:01;4.82;;;1.60;;
47866;SDS011;33628;50.806;11.586;2023-11-21T01:18:28;4.00;;;1.88;;
47866;SDS011;33628;50.806;11.586;2023-11-21T01:20:56;3.38;;;1.48;;
47866;SDS011;33628;50.806;11.586;2023-11-21T01:23:27;2.78;;;1.63;;
47866;SDS011;33628;50.806;11.586;2023-11-21T01:25:58;4.55;;;1.67;;
47866;SDS011;33628;50.806;11.586;2023-11-21T01:28:26;4.22;;;2.47;;
47866;SDS011;33628;50.806;11.586;2023-11-21T01:30:54;6.50;;;1.70;;
47866;SDS011;33628;50.806;11.586;2023-11-21T01:33:22;7.70;;;1.73;;
47866;SDS011;33628;50.806;11.586;2023-11-21T01:35:52;2.97;;;1.17;;
47866;SDS011;33628;50.806;11.586;2023-11-21T01:38:26;5.13;;;0.85;;
47866;SDS011;33628;50.806;11.586;2023-11-21T01:40:53;1.55;;;0.80;;
47866;SDS011;33628;50.806;11.586;2023-11-21T01:43:22;3.75;;;0.98;;
47866;SDS011;33628;50.806;11.586;2023-11-21T01:45:49;1.92;;;0.70;;
47866;SDS011;33628;50.806;11.586;2023-11-21T01:48:15;3.45;;;0.80;;
47866;SDS011;33628;50.806;11.586;2023-11-21T01:50:42;2.45;;;0.95;;
47866;SDS011;33628;50.806;11.586;2023-11-21T01:53:11;4.13;;;0.90;;
47866;SDS011;33628;50.806;11.586;2023-11-21T01:55:40;5.63;;;1.05;;
47866;SDS011;33628;50.806;11.586;2023-11-21T01:58:08;4.70;;;0.90;;
47866;SDS011;33628;50.806;11.586;2023-11-21T02:00:35;2.90;;;0.95;;
47866;SDS011;33628;50.806;11.586;2023-11-21T02:03:02;9.93;;;1.70;;
47866;SDS011;33628;50.806;11.586;2023-11-21T02:05:30;2.92;;;1.13;;
47866;SDS011;33628;50.806;11.586;2023-11-21T02:07:58;2.28;;;1.00;;
47866;SDS011;33628;50.806;11.586;2023-11-21T02:10:24;2.85;;;1.10;;
47866;SDS011;33628;50.806;11.586;2023-11-21T02:12:53;2.53;;;1.17;;
47866;SDS011;33628;50.806;11.586;2023-11-21T02:15:20;2.55;;;1.33;;
47866;SDS011;33628;50.806;11.586;2023-11-21T02:17:49;4.60;;;1.45;;
47866;SDS011;33628;50.806;11.586;2023-11-21T02:20:17;8.18;;;1.70;;
47866;SDS011;33628;50.806;11.586;2023-11-21T02:22:49;4.80;;;1.75;;
47866;SDS011;33628;50.806;11.586;2023-11-21T02:25:26;3.60;;;1.17;;
47866;SDS011;33628;50.806;11.586;2023-11-21T02:27:53;5.22;;;1.65;;
47866;SDS011;33628;50.806;11.586;2023-11-21T02:30:20;3.00;;;1.15;;
47866;SDS011;33628;50.806;11.586;2023-11-21T02:32:47;5.50;;;1.30;;
47866;SDS011;33628;50.806;11.586;2023-11-21T02:35:14;2.60;;;1.30;;
47866;SDS011;33628;50.806;11.586;2023-11-21T02:37:41;6.82;;;1.58;;
47866;SDS011;33628;50.806;11.586;2023-11-21T02:40:10;3.72;;;1.50;;
47866;SDS011;33628;50.806;11.586;2023-11-21T02:42:43;3.00;;;1.48;;
47866;SDS011;33628;50.806;11.586;2023-11-21T02:45:10;1.95;;;1.05;;
47866;SDS011;33628;50.806;11.586;2023-11-21T02:47:38;5.30;;;1.02;;
47866;SDS011;33628;50.806;11.586;2023-11-21T02:50:06;1.95;;;1.00;;
47866;SDS011;33628;50.806;11.586;2023-11-21T02:52:35;1.38;;;0.80;;
47866;SDS011;33628;50.806;11.586;2023-11-21T02:55:02;2.35;;;0.73;;
47866;SDS011;33628;50.806;11.586;2023-11-21T02:57:31;5.93;;;1.00;;
47866;SDS011;33628;50.806;11.586;2023-11-21T02:59:57;4.22;;;1.23;;
47866;SDS011;33628;50.806;11.586;2023-11-21T03:02:24;3.95;;;0.88;;
47866;SDS011;33628;50.806;11.586;2023-11-21T03:04:51;2.05;;;0.98;;
47866;SDS011;33628;50.806;11.586;2023-11-21T03:07:19;4.38;;;0.90;;
47866;SDS011;33628;50.806;11.586;2023-11-21T03:09:45;3.05;;;1.25;;
47866;SDS011;33628;50.806;11.586;2023-11-21T03:12:12;6.45;;;1.20;;
47866;SDS011;33628;50.806;11.586;2023-11-21T03:14:40;2.03;;;1.20;;
47866;SDS011;33628;50.806;11.586;2023-11-21T03:17:06;2.33;;;1.30;;
47866;SDS011;33628;50.806;11.586;2023-11-21T03:19:33;4.88;;;1.33;;
47866;SDS011;33628;50.806;11.586;2023-11-21T03:22:00;2.47;;;1.50;;
47866;SDS011;33628;50.806;11.586;2023-11-21T03:24:26;4.28;;;1.88;;
47866;SDS011;33628;50.806;11.586;2023-11-21T03:26:53;3.65;;;1.70;;
47866;SDS011;33628;50.806;11.586;2023-11-21T03:29:20;3.35;;;1.77;;
47866;SDS011;33628;50.806;11.586;2023-11-21T03:31:48;5.22;;;1.83;;
47866;SDS011;33628;50.806;11.586;2023-11-21T03:34:15;3.78;;;1.75;;
47866;SDS011;33628;50.806;11.586;2023-11-21T03:36:45;6.05;;;1.65;;
47866;SDS011;33628;50.806;11.586;2023-11-21T03:39:12;5.70;;;1.60;;
47866;SDS011;33628;50.806;11.586;2023-11-21T03:41:39;4.50;;;1.60;;
47866;SDS011;33628;50.806;11.586;2023-11-21T03:44:06;4.07;;;1.60;;
47866;SDS011;33628;50.806;11.586;2023-11-21T03:46:32;7.47;;;1.50;;
47866;SDS011;33628;50.806;11.586;2023-11-21T03:49:00;8.30;;;1.70;;
47866;SDS011;33628;50.806;11.586;2023-11-21T03:51:27;4.00;;;1.63;;
47866;SDS011;33628;50.806;11.586;2023-11-21T03:53:54;5.15;;;1.90;;
47866;SDS011;33628;50.806;11.586;2023-11-21T03:56:21;4.63;;;1.90;;
47866;SDS011;33628;50.806;11.586;2023-11-21T03:58:47;7.38;;;2.20;;
47866;SDS011;33628;50.806;11.586;2023-11-21T04:01:20;4.05;;;1.77;;
47866;SDS011;33628;50.806;11.586;2023-11-21T04:03:47;8.55;;;2.13;;
47866;SDS011;33628;50.806;11.586;2023-11-21T04:06:15;7.50;;;1.80;;
47866;SDS011;33628;50.806;11.586;2023-11-21T04:08:43;3.88;;;1.75;;
47866;SDS011;33628;50.806;11.586;2023-11-21T04:11:10;8.20;;;2.08;;
47866;SDS011;33628;50.806;11.586;2023-11-21T04:13:40;5.45;;;1.75;;
47866;SDS011;33628;50.806;11.586;2023-11-21T04:16:08;5.15;;;2.22;;
47866;SDS011;33628;50.806;11.586;2023-11-21T04:18:35;3.13;;;1.80;;
47866;SDS011;33628;50.806;11.586;2023-11-21T04:21:02;7.65;;;1.73;;
47866;SDS011;33628;50.806;11.586;2023-11-21T04:23:31;4.20;;;2.33;;
47866;SDS011;33628;50.806;11.586;2023-11-21T04:25:57;7.60;;;1.95;;
47866;SDS011;33628;50.806;11.586;2023-11-21T04:28:24;3.40;;;1.58;;
47866;SDS011;33628;50.806;11.586;2023-11-21T04:30:51;6.07;;;2.10;;
47866;SDS011;33628;50.806;11.586;2023-11-21T04:33:18;6.05;;;1.85;;
47866;SDS011;33628;50.806;11.586;2023-11-21T04:35:44;3.55;;;2.00;;
47866;SDS011;33628;50.806;11.586;2023-11-21T04:38:12;4.90;;;2.10;;
47866;SDS011;33628;50.806;11.586;2023-11-21T04:40:39;5.30;;;2.30;;
47866;SDS011;33628;50.806;11.586;2023-11-21T04:43:06;5.85;;;2.92;;
47866;SDS011;33628;50.806;11.586;2023-11-21T04:45:33;5.88;;;3.00;;
47866;SDS011;33628;50.806;11.586;2023-11-21T04:48:00;6.57;;;2.65;;
47866;SDS011;33628;50.806;11.586;2023-11-21T04:50:26;3.40;;;2.15;;
47866;SDS011;33628;50.806;11.586;2023-11-21T04:52:53;5.28;;;2.67;;
47866;SDS011;33628;50.806;11.586;2023-11-21T04:55:19;5.85;;;2.60;;
47866;SDS011;33628;50.806;11.586;2023-11-21T04:57:47;8.23;;;2.35;;
47866;SDS011;33628;50.806;11.586;2023-11-21T05:00:14;10.02;;;2.83;;
47866;SDS011;33628;50.806;11.586;2023-11-21T05:02:41;5.00;;;2.60;;
47866;SDS011;33628;50.806;11.586;2023-11-21T05:05:09;6.03;;;2.05;;
47866;SDS011;33628;50.806;11.586;2023-11-21T05:07:36;3.50;;;2.15;;
47866;SDS011;33628;50.806;11.586;2023-11-21T05:10:04;5.22;;;2.05;;
47866;SDS011;33628;50.806;11.586;2023-11-21T05:12:34;5.30;;;1.30;;
47866;SDS011;33628;50.806;11.586;2023-11-21T05:15:06;1.30;;;0.93;;
47866;SDS011;33628;50.806;11.586;2023-11-21T05:17:37;3.05;;;1.05;;
47866;SDS011;33628;50.806;11.586;2023-11-21T05:20:08;4.75;;;1.25;;
47866;SDS011;33628;50.806;11.586;2023-11-21T05:22:35;2.95;;;1.20;;
47866;SDS011;33628;50.806;11.586;2023-11-21T05:25:02;2.33;;;1.45;;
47866;SDS011;33628;50.806;11.586;2023-11-21T05:27:32;3.72;;;1.45;;
47866;SDS011;33628;50.806;11.586;2023-11-21T05:29:59;6.50;;;1.80;;
47866;SDS011;33628;50.806;11.586;2023-11-21T05:32:28;3.10;;;1.58;;
47866;SDS011;33628;50.806;11.586;2023-11-21T05:34:55;4.70;;;1.85;;
47866;SDS011;33628;50.806;11.586;2023-11-21T05:37:23;5.70;;;2.00;;
47866;SDS011;33628;50.806;11.586;2023-11-21T05:39:52;4.95;;;1.75;;
47866;SDS011;33628;50.806;11.586;2023-11-21T05:42:22;6.07;;;2.28;;
47866;SDS011;33628;50.806;11.586;2023-11-21T05:44:49;6.32;;;3.38;;
47866;SDS011;33628;50.806;11.586;2023-11-21T05:47:16;4.43;;;2.92;;
47866;SDS011;33628;50.806;11.586;2023-11-21T05:49:45;8.65;;;3.70;;
47866;SDS011;33628;50.806;11.586;2023-11-21T05:52:16;8.75;;;2.50;;
47866;SDS011;33628;50.806;11.586;2023-11-21T05:54:42;2.53;;;1.85;;
47866;SDS011;33628;50.806;11.586;2023-11-21T05:57:09;5.00;;;1.38;;
47866;SDS011;33628;50.806;11.586;2023-11-21T05:59:36;4.20;;;1.95;;
47866;SDS011;33628;50.806;11.586;2023-11-21T06:02:03;5.88;;;2.35;;
47866;SDS011;33628;50.806;11.586;2023-11-21T06:04:30;5.95;;;2.15;;
47866;SDS011;33628;50.806;11.586;2023-11-21T06:06:58;4.35;;;2.58;;
47866;SDS011;33628;50.806;11.586;2023-11-21T06:09:26;6.75;;;3.53;;
47866;SDS011;33628;50.806;11.586;2023-11-21T06:11:53;6.60;;;3.00;;
47866;SDS011;33628;50.806;11.586;2023-11-21T06:14:20;11.15;;;3.17;;
47866;SDS011;33628;50.806;11.586;2023-11-21T06:16:47;6.40;;;3.25;;
47866;SDS011;33628;50.806;11.586;2023-11-21T06:19:17;10.13;;;3.60;;
47866;SDS011;33628;50.806;11.586;2023-11-21T06:21:45;4.35;;;2.85;;
47866;SDS011;33628;50.806;11.586;2023-11-21T06:24:13;5.93;;;2.72;;
47866;SDS011;33628;50.806;11.586;2023-11-21T06:26:41;5.90;;;2.75;;
47866;SDS011;33628;50.806;11.586;2023-11-21T06:29:07;5.70;;;3.20;;
47866;SDS011;33628;50.806;11.586;2023-11-21T06:31:34;7.15;;;3.35;;
47866;SDS011;33628;50.806;11.586;2023-11-21T06:34:01;5.03;;;3.45;;
47866;SDS011;33628;50.806;11.586;2023-11-21T06:36:29;5.78;;;3.47;;
47866;SDS011;33628;50.806;11.586;2023-11-21T06:38:55;12.43;;;4.80;;
47866;SDS011;33628;50.806;11.586;2023-11-21T06:41:23;12.05;;;4.85;;
47866;SDS011;33628;50.806;11.586;2023-11-21T06:43:50;13.55;;;4.95;;
47866;SDS011;33628;50.806;11.586;2023-11-21T06:46:16;7.85;;;3.92;;
47866;SDS011;33628;50.806;11.586;2023-11-21T06:48:44;10.90;;;3.53;;
47866;SDS011;33628;50.806;11.586;2023-11-21T06:51:12;8.35;;;3.55;;
47866;SDS011;33628;50.806;11.586;2023-11-21T06:53:39;6.82;;;4.10;;
47866;SDS011;33628;50.806;11.586;2023-11-21T06:56:15;7.88;;;3.70;;
47866;SDS011;33628;50.806;11.586;2023-11-21T06:58:43;3.70;;;2.78;;
47866;SDS011;33628;50.806;11.586;2023-11-21T07:01:11;9.07;;;3.28;;
47866;SDS011;33628;50.806;11.586;2023-11-21T07:03:38;8.60;;;3.60;;
47866;SDS011;33628;50.806;11.586;2023-11-21T07:06:05;15.50;;;6.18;;
47866;SDS011;33628;50.806;11.586;2023-11-21T07:08:33;8.30;;;4.68;;
47866;SDS011;33628;50.806;11.586;2023-11-21T07:10:59;4.80;;;3.15;;
47866;SDS011;33628;50.806;11.586;2023-11-21T07:13:26;10.27;;;3.55;;
47866;SDS011;33628;50.806;11.586;2023-11-21T07:15:54;6.32;;;3.28;;
47866;SDS011;33628;50.806;11.586;2023-11-21T07:18:21;6.53;;;3.78;;
47866;SDS011;33628;50.806;11.586;2023-11-21T07:20:47;10.63;;;3.80;;
47866;SDS011;33628;50.806;11.586;2023-11-21T07:23:14;10.93;;;3.60;;
47866;SDS011;33628;50.806;11.586;2023-11-21T07:25:41;12.55;;;3.58;;
47866;SDS011;33628;50.806;11.586;2023-11-21T07:28:09;10.80;;;3.55;;
47866;SDS011;33628;50.806;11.586;2023-11-21T07:30:35;10.50;;;3.78;;
47866;SDS011;33628;50.806;11.586;2023-11-21T07:33:05;5.65;;;3.38;;
47866;SDS011;33628;50.806;11.586;2023-11-21T07:35:32;6.18;;;3.70;;
47866;SDS011;33628;50.806;11.586;2023-11-21T07:37:59;6.97;;;2.80;;
47866;SDS011;33628;50.806;11.586;2023-11-21T07:40:26;7.00;;;2.72;;
47866;SDS011;33628;50.806;11.586;2023-11-21T07:42:53;13.07;;;2.70;;
47866;SDS011;33628;50.806;11.586;2023-11-21T07:45:23;7.03;;;2.40;;
47866;SDS011;33628;50.806;11.586;2023-11-21T07:47:49;7.13;;;2.92;;
47866;SDS011;33628;50.806;11.586;2023-11-21T07:50:18;12.10;;;3.25;;
47866;SDS011;33628;50.806;11.586;2023-11-21T07:52:44;9.95;;;4.05;;
47866;SDS011;33628;50.806;11.586;2023-11-21T07:55:11;5.65;;;4.32;;
47866;SDS011;33628;50.806;11.586;2023-11-21T07:57:38;12.73;;;8.90;;
47866;SDS011;33628;50.806;11.586;2023-11-21T08:00:05;11.30;;;6.95;;
47866;SDS011;33628;50.806;11.586;2023-11-21T08:02:38;12.57;;;7.22;;
47866;SDS011;33628;50.806;11.586;2023-11-21T08:05:08;8.55;;;3.63;;
47866;SDS011;33628;50.806;11.586;2023-11-21T08:07:36;9.85;;;3.30;;
47866;SDS011;33628;50.806;11.586;2023-11-21T08:10:03;8.70;;;4.10;;
47866;SDS011;33628;50.806;11.586;2023-11-21T08:12:33;10.15;;;5.22;;
47866;SDS011;33628;50.806;11.586;2023-11-21T08:14:59;7.18;;;3.13;;
47866;SDS011;33628;50.806;11.586;2023-11-21T08:17:28;5.43;;;3.22;;
47866;SDS011;33628;50.806;11.586;2023-11-21T08:19:55;7.68;;;3.55;;
47866;SDS011;33628;50.806;11.586;2023-11-21T08:22:21;7.93;;;4.18;;
47866;SDS011;33628;50.806;11.586;2023-11-21T08:24:50;9.75;;;4.25;;
47866;SDS011;33628;50.806;11.586;2023-11-21T08:27:17;8.07;;;4.38;;
47866;SDS011;33628;50.806;11.586;2023-11-21T08:29:45;7.75;;;4.65;;
47866;SDS011;33628;50.806;11.586;2023-11-21T08:32:11;6.90;;;4.70;;
47866;SDS011;33628;50.806;11.586;2023-11-21T08:34:38;9.30;;;4.97;;
47866;SDS011;33628;50.806;11.586;2023-11-21T08:37:05;10.02;;;5.70;;
47866;SDS011;33628;50.806;11.586;2023-11-21T08:39:32;11.38;;;4.65;;
47866;SDS011;33628;50.806;11.586;2023-11-21T08:42:00;14.27;;;6.10;;
47866;SDS011;33628;50.806;11.586;2023-11-21T08:44:26;9.55;;;4.22;;
47866;SDS011;33628;50.806;11.586;2023-11-21T08:46:53;9.88;;;4.60;;
47866;SDS011;33628;50.806;11.586;2023-11-21T08:49:20;12.07;;;4.60;;
47866;SDS011;33628;50.806;11.586;2023-11-21T08:51:46;10.10;;;4.13;;
47866;SDS011;33628;50.806;11.586;2023-11-21T08:54:13;6.25;;;4.80;;
47866;SDS011;33628;50.806;11.586;2023-11-21T08:56:40;9.30;;;5.03;;
47866;SDS011;33628;50.806;11.586;2023-11-21T08:59:08;14.20;;;7.32;;
47866;SDS011;33628;50.806;11.586;2023-11-21T09:01:35;10.32;;;5.45;;
47866;SDS011;33628;50.806;11.586;2023-11-21T09:04:02;16.88;;;11.57;;
47866;SDS011;33628;50.806;11.586;2023-11-21T09:06:28;18.48;;;10.60;;
47866;SDS011;33628;50.806;11.586;2023-11-21T09:08:55;24.92;;;13.20;;
47866;SDS011;33628;50.806;11.586;2023-11-21T09:11:22;38.55;;;18.67;;
47866;SDS011;33628;50.806;11.586;2023-11-21T09:13:51;19.00;;;10.00;;
47866;SDS011;33628;50.806;11.586;2023-11-21T09:16:20;41.42;;;20.45;;
47866;SDS011;33628;50.806;11.586;2023-11-21T09:18:46;19.30;;;10.88;;
47866;SDS011;33628;50.806;11.586;2023-11-21T09:21:13;44.78;;;20.23;;
47866;SDS011;33628;50.806;11.586;2023-11-21T09:23:40;51.40;;;22.38;;
47866;SDS011;33628;50.806;11.586;2023-11-21T09:26:07;30.40;;;14.27;;
47866;SDS011;33628;50.806;11.586;2023-11-21T09:28:34;10.63;;;6.85;;
47866;SDS011;33628;50.806;11.586;2023-11-21T09:31:04;18.80;;;10.35;;
47866;SDS011;33628;50.806;11.586;2023-11-21T09:33:36;18.05;;;8.07;;
47866;SDS011;33628;50.806;11.586;2023-11-21T09:36:05;14.38;;;6.28;;
47866;SDS011;33628;50.806;11.586;2023-11-21T09:38:37;16.42;;;7.18;;
47866;SDS011;33628;50.806;11.586;2023-11-21T09:41:05;10.77;;;6.95;;
47866;SDS011;33628;50.806;11.586;2023-11-21T09:43:33;13.75;;;8.25;;
47866;SDS011;33628;50.806;11.586;2023-11-21T09:46:01;10.13;;;5.32;;
47866;SDS011;33628;50.806;11.586;2023-11-21T09:48:28;9.10;;;5.45;;
47866;SDS011;33628;50.806;11.586;2023-11-21T09:50:57;12.73;;;5.68;;
47866;SDS011;33628;50.806;11.586;2023-11-21T09:53:24;13.23;;;6.35;;
47866;SDS011;33628;50.806;11.586;2023-11-21T09:55:53;10.93;;;6.45;;
47866;SDS011;33628;50.806;11.586;2023-11-21T09:58:20;12.75;;;6.30;;
47866;SDS011;33628;50.806;11.586;2023-11-21T10:00:48;12.48;;;6.63;;
47866;SDS011;33628;50.806;11.586;2023-11-21T10:03:16;10.35;;;6.32;;
47866;SDS011;33628;50.806;11.586;2023-11-21T10:05:43;11.75;;;6.40;;
47866;SDS011;33628;50.806;11.586;2023-11-21T10:08:13;10.25;;;6.05;;
47866;SDS011;33628;50.806;11.586;2023-11-21T10:10:42;11.65;;;6.43;;
47866;SDS011;33628;50.806;11.586;2023-11-21T10:13:11;14.65;;;6.72;;
47866;SDS011;33628;50.806;11.586;2023-11-21T10:15:38;12.80;;;5.63;;
47866;SDS011;33628;50.806;11.586;2023-11-21T10:18:14;12.70;;;5.85;;
47866;SDS011;33628;50.806;11.586;2023-11-21T10:20:41;12.73;;;5.97;;
47866;SDS011;33628;50.806;11.586;2023-11-21T10:23:09;12.52;;;6.63;;
47866;SDS011;33628;50.806;11.586;2023-11-21T10:25:38;17.15;;;7.40;;
47866;SDS011;33628;50.806;11.586;2023-11-21T10:28:05;16.25;;;7.05;;
47866;SDS011;33628;50.806;11.586;2023-11-21T10:30:32;13.30;;;7.13;;
47866;SDS011;33628;50.806;11.586;2023-11-21T10:33:02;16.70;;;7.75;;
47866;SDS011;33628;50.806;11.586;2023-11-21T10:35:39;14.32;;;7.40;;
47866;SDS011;33628;50.806;11.586;2023-11-21T10:38:12;16.63;;;8.70;;
47866;SDS011;33628;50.806;11.586;2023-11-21T10:40:41;15.98;;;8.65;;
47866;SDS011;33628;50.806;11.586;2023-11-21T10:43:08;15.35;;;9.15;;
47866;SDS011;33628;50.806;11.586;2023-11-21T10:45:35;14.10;;;6.80;;
47866;SDS011;33628;50.806;11.586;2023-11-21T10:48:05;15.43;;;7.70;;
47866;SDS011;33628;50.806;11.586;2023-11-21T10:50:33;12.48;;;7.22;;
47866;SDS011;33628;50.806;11.586;2023-11-21T10:53:01;17.50;;;9.57;;
47866;SDS011;33628;50.806;11.586;2023-11-21T10:55:29;17.25;;;8.25;;
47866;SDS011;33628;50.806;11.586;2023-11-21T10:57:59;21.00;;;8.88;;
47866;SDS011;33628;50.806;11.586;2023-11-21T11:00:28;14.70;;;7.95;;
47866;SDS011;33628;50.806;11.586;2023-11-21T11:02:55;18.55;;;9.85;;
47866;SDS011;33628;50.806;11.586;2023-11-21T11:05:22;18.40;;;11.27;;
47866;SDS011;33628;50.806;11.586;2023-11-21T11:07:50;20.73;;;10.27;;
47866;SDS011;33628;50.806;11.586;2023-11-21T11:10:20;16.38;;;9.50;;
47866;SDS011;33628;50.806;11.586;2023-11-21T11:12:48;21.95;;;9.68;;
47866;SDS011;33628;50.806;11.586;2023-11-21T11:15:17;17.88;;;8.98;;
47866;SDS011;33628;50.806;11.586;2023-11-21T11:17:44;20.45;;;8.95;;
47866;SDS011;33628;50.806;11.586;2023-11-21T11:20:11;19.08;;;8.13;;
47866;SDS011;33628;50.806;11.586;2023-11-21T11:22:41;14.10;;;7.88;;
47866;SDS011;33628;50.806;11.586;2023-11-21T11:25:18;16.90;;;8.30;;
47866;SDS011;33628;50.806;11.586;2023-11-21T11:27:52;17.20;;;7.95;;
47866;SDS011;33628;50.806;11.586;2023-11-21T11:30:39;13.07;;;7.78;;
47866;SDS011;33628;50.806;11.586;2023-11-21T11:33:14;14.13;;;7.78;;
47866;SDS011;33628;50.806;11.586;2023-11-21T11:35:53;11.98;;;7.68;;
47866;SDS011;33628;50.806;11.586;2023-11-21T11:38:26;13.02;;;6.95;;
47866;SDS011;33628;50.806;11.586;2023-11-21T11:40:56;11.52;;;7.13;;
47866;SDS011;33628;50.806;11.586;2023-11-21T11:43:26;14.23;;;7.55;;
47866;SDS011;33628;50.806;11.586;2023-11-21T11:45:56;13.45;;;7.05;;
47866;SDS011;33628;50.806;11.586;2023-11-21T11:48:24;13.63;;;7.60;;
47866;SDS011;33628;50.806;11.586;2023-11-21T11:51:01;15.43;;;7.97;;
47866;SDS011;33628;50.806;11.586;2023-11-21T11:53:38;14.15;;;7.85;;
47866;SDS011;33628;50.806;11.586;2023-11-21T11:56:25;14.35;;;8.20;;
47866;SDS011;33628;50.806;11.586;2023-11-21T11:58:53;14.02;;;8.00;;
47866;SDS011;33628;50.806;11.586;2023-11-21T12:01:22;19.30;;;9.20;;
47866;SDS011;33628;50.806;11.586;2023-11-21T12:06:57;16.67;;;9.20;;
47866;SDS011;33628;50.806;11.586;2023-11-21T12:09:29;17.85;;;10.60;;
47866;SDS011;33628;50.806;11.586;2023-11-21T12:11:57;24.13;;;9.93;;
47866;SDS011;33628;50.806;11.586;2023-11-21T12:14:24;23.42;;;11.23;;
47866;SDS011;33628;50.806;11.586;2023-11-21T12:16:52;17.42;;;10.05;;
47866;SDS011;33628;50.806;11.586;2023-11-21T12:19:19;21.38;;;11.70;;
47866;SDS011;33628;50.806;11.586;2023-11-21T12:21:46;26.17;;;11.73;;
47866;SDS011;33628;50.806;11.586;2023-11-21T12:24:14;24.13;;;11.88;;
47866;SDS011;33628;50.806;11.586;2023-11-21T12:26:42;21.63;;;11.32;;
47866;SDS011;33628;50.806;11.586;2023-11-21T12:29:09;21.65;;;11.52;;
47866;SDS011;33628;50.806;11.586;2023-11-21T12:31:36;20.13;;;10.65;;
47866;SDS011;33628;50.806;11.586;2023-11-21T12:34:04;21.23;;;11.15;;
47866;SDS011;33628;50.806;11.586;2023-11-21T12:36:32;21.63;;;10.32;;
47866;SDS011;33628;50.806;11.586;2023-11-21T12:39:00;19.77;;;10.30;;
47866;SDS011;33628;50.806;11.586;2023-11-21T12:41:28;18.33;;;9.88;;
47866;SDS011;33628;50.806;11.586;2023-11-21T12:43:56;15.73;;;9.65;;
47866;SDS011;33628;50.806;11.586;2023-11-21T12:46:23;24.70;;;11.75;;
47866;SDS011;33628;50.806;11.586;2023-11-21T12:48:52;21.17;;;10.82;;
47866;SDS011;33628;50.806;11.586;2023-11-21T12:51:21;22.90;;;11.27;;
47866;SDS011;33628;50.806;11.586;2023-11-21T12:53:47;21.30;;;11.45;;
47866;SDS011;33628;50.806;11.586;2023-11-21T12:56:14;21.77;;;10.73;;
47866;SDS011;33628;50.806;11.586;2023-11-21T12:58:44;16.25;;;8.02;;
47866;SDS011;33628;50.806;11.586;2023-11-21T13:01:12;15.23;;;7.80;;
47866;SDS011;33628;50.806;11.586;2023-11-21T13:03:45;17.20;;;7.28;;
47866;SDS011;33628;50.806;11.586;2023-11-21T13:06:14;16.23;;;7.63;;
47866;SDS011;33628;50.806;11.586;2023-11-21T13:08:43;12.85;;;7.03;;
47866;SDS011;33628;50.806;11.586;2023-11-21T13:11:10;12.02;;;6.60;;
47866;SDS011;33628;50.806;11.586;2023-11-21T13:13:40;10.07;;;5.82;;
47866;SDS011;33628;50.806;11.586;2023-11-21T13:16:08;11.82;;;5.80;;
47866;SDS011;33628;50.806;11.586;2023-11-21T13:18:35;13.68;;;5.78;;
47866;SDS011;33628;50.806;11.586;2023-11-21T13:21:04;12.70;;;5.75;;
47866;SDS011;33628;50.806;11.586;2023-11-21T13:23:37;8.82;;;5.05;;
47866;SDS011;33628;50.806;11.586;2023-11-21T13:26:05;10.90;;;5.05;;
47866;SDS011;33628;50.806;11.586;2023-11-21T13:28:32;7.30;;;3.90;;
47866;SDS011;33628;50.806;11.586;2023-11-21T13:30:59;8.52;;;4.60;;
47866;SDS011;33628;50.806;11.586;2023-11-21T13:33:35;6.40;;;3.30;;
47866;SDS011;33628;50.806;11.586;2023-11-21T13:36:08;8.07;;;4.72;;
47866;SDS011;33628;50.806;11.586;2023-11-21T13:38:35;7.88;;;3.55;;
47866;SDS011;33628;50.806;11.586;2023-11-21T13:41:03;5.30;;;3.03;;
47866;SDS011;33628;50.806;11.586;2023-11-21T13:43:34;5.93;;;2.30;;
47866;SDS011;33628;50.806;11.586;2023-11-21T13:46:02;3.72;;;2.25;;
47866;SDS011;33628;50.806;11.586;2023-11-21T13:48:38;5.03;;;2.85;;
47866;SDS011;33628;50.806;11.586;2023-11-21T13:51:08;8.30;;;3.28;;
47866;SDS011;33628;50.806;11.586;2023-11-21T13:53:46;8.05;;;3.95;;
47866;SDS011;33628;50.806;11.586;2023-11-21T13:56:19;7.60;;;4.25;;
47866;SDS011;33628;50.806;11.586;2023-11-21T13:58:49;8.70;;;4.43;;
47866;SDS011;33628;50.806;11.586;2023-11-21T14:01:17;10.85;;;5.00;;
47866;SDS011;33628;50.806;11.586;2023-11-21T14:03:56;11.52;;;5.53;;
47866;SDS011;33628;50.806;11.586;2023-11-21T14:06:31;9.52;;;5.32;;
47866;SDS011;33628;50.806;11.586;2023-11-21T14:09:14;10.98;;;5.15;;
47866;SDS011;33628;50.806;11.586;2023-11-21T14:11:52;11.05;;;5.53;;
47866;SDS011;33628;50.806;11.586;2023-11-21T14:14:21;11.32;;;6.28;;
47866;SDS011;33628;50.806;11.586;2023-11-21T14:16:51;10.30;;;6.72;;
47866;SDS011;33628;50.806;11.586;2023-11-21T14:19:18;13.50;;;7.32;;
47866;SDS011;33628;50.806;11.586;2023-11-21T14:21:45;15.43;;;8.13;;
47866;SDS011;33628;50.806;11.586;2023-11-21T14:24:14;15.65;;;8.52;;
47866;SDS011;33628;50.806;11.586;2023-11-21T14:26:43;13.65;;;8.02;;
47866;SDS011;33628;50.806;11.586;2023-11-21T14:29:16;16.92;;;8.55;;
47866;SDS011;33628;50.806;11.586;2023-11-21T14:31:49;18.55;;;8.93;;
47866;SDS011;33628;50.806;11.586;2023-11-21T14:34:17;16.05;;;9.30;;
47866;SDS011;33628;50.806;11.586;2023-11-21T14:36:44;17.60;;;9.38;;
47866;SDS011;33628;50.806;11.586;2023-11-21T14:39:11;19.23;;;9.68;;